Plato, MN (55370)

10:50 PM CST on December 26, 2014 (GMT -0600)
Deltaville U.S.A. | Change Station
CLOSE
Current Station
Personal Weather Station
Location: Hamburg, MN
Elevation: 1004 ft
Nearby Weather Stations
Active Advisory: Winter Weather Advisory

Elev 1004 ft 44.73 °N, 93.97 °W | Updated 1 second ago

Light Snow
Light Snow
25.7 °F
Feels Like 18 °F
N
7.2
Wind Variable Wind from North
Gusts 13.2 mph

Today
High -- | Low -- °F
--% Chance of Precip.
Yesterday
High -- | Low -- °F
Precip. -- in
7:52 AM 4:41 PM
Waxing Crescent, 32% visible
Pressure 30.07 in
Visibility 2.0 miles
Clouds Overcast 700 ft
Windchill 18 °F
Dew Point 21 °F
Humidity 81%
Rainfall 0.00 in
Snow Depth Not available.
UV 0.0 out of 12
Pollen .10 out of 12
Air Quality Not available.
Flu Activity Not available.
METAR KGYL 270434Z AUTO 35007KT 2SM -SN OVC007 M03/M03 A3007 RMK AO2 T10261030

More Conditions Fewer Conditions

Pressure 30.07 in
Visibility 2.0 miles
Clouds Overcast 700 ft
Windchill 18 °F
Dew Point 21 °F
Humidity 81%
Rainfall 0.00 in
Snow Depth Not available.
UV 0.0 out of 12
Pollen .10 out of 12
Air Quality Not available.
Flu Activity Not available.
METAR KGYL 270434Z AUTO 35007KT 2SM -SN OVC007 M03/M03 A3007 RMK AO2 T10261030

More Conditions Fewer Conditions

10-Day Weather Forecast

Almanac

Astronomy

Dec. 26, 2014 Rise Set
Actual Time
Civil Twilight
Nautical Twilight
Astronomical Twilight
Moon
Length of Visible Light
Length of Day
Tomorrow will be .
, % of the Moon is Illuminated

Today's Extremes

State Highs State Lows

Community

WunderPhotos

Upload Photos

1,780,847 photos uploaded!

WunderBlogs® & News

Nearby

Air Quality

  Air Quality AQ Index Pollutant
Not available.

Snow Depth

Station Depth Elevation

Earthquake Activity

City Distance Mag. Time & Date
Minimum magnitude displayed is 2.5.

Coastal Water Temperatures

Place Temperature

Nearby Weather Stations